Esplugues de Llobregat, Spain
Current Conditions -  °F | °C
As of 2:30 AM on Thursday 27 Nov 2014 (Local Time) from LEBL Reporting Station
Few Clouds Few Clouds  
Wind Chill: 54°   Ceiling: Unl
Heat Index: 54°   Visibility: 6mi
Dew Point: 50°   Wind: 5mph
Humidity: 88%   Direction: 320°NW
Pressure: 29.8"   Gusts: NA
Location:  41.38°N, 2.09°E
Report Text: LEBL 270130Z 32004KT 9999 FEW020 12/10 Q1009 NOSIG
Loading
Personal Weather Stations






























Interactive Weather Map New forecast layout! Learn more

10-Day Weather Forecast

Advertisements
Track Severe Weather on mobile